createdAt,value
2022-07-29T00:02:16.935Z,96161.97
2022-07-29T00:04:43.703Z,96163.41
2022-07-29T00:07:10.672Z,96164.44
2022-07-29T00:09:44.905Z,96161.16
2022-07-29T00:12:25.445Z,96166.41
2022-07-29T00:14:56.559Z,96160.78
2022-07-29T00:17:25.013Z,96165.53
2022-07-29T00:19:52.246Z,96165.53
2022-07-29T00:22:20.448Z,96155.53
2022-07-29T00:24:50.017Z,96158.25
2022-07-29T00:27:17.675Z,96154.72
2022-07-29T00:29:44.402Z,96152.63
2022-07-29T00:32:11.138Z,96153.66
2022-07-29T00:34:56.348Z,96145.13
2022-07-29T00:37:23.175Z,96143.47
2022-07-29T00:39:50.248Z,96143.09
2022-07-29T00:42:17.591Z,96146.00
2022-07-29T00:44:44.725Z,96144.13
2022-07-29T00:47:12.448Z,96130.63
2022-07-29T00:49:40.980Z,96151.41
2022-07-29T00:52:09.015Z,96146.00
2022-07-29T00:54:39.816Z,96141.88
2022-07-29T00:57:11.939Z,96141.66
2022-07-29T00:59:38.615Z,96137.34
2022-07-29T01:02:05.555Z,96143.53
2022-07-29T01:04:33.058Z,96131.94
2022-07-29T01:07:02.595Z,96140.03
2022-07-29T01:09:43.117Z,96135.06
2022-07-29T01:12:34.786Z,96139.41
2022-07-29T01:15:03.675Z,96135.69
2022-07-29T01:17:52.680Z,96136.03
2022-07-29T01:20:51.059Z,96144.34
2022-07-29T01:23:32.965Z,96131.94
2022-07-29T01:26:21.433Z,96133.16
2022-07-29T01:29:04.033Z,96132.53
2022-07-29T01:32:02.762Z,96131.94
2022-07-29T01:34:42.379Z,96136.94
2022-07-29T01:37:22.081Z,96139.88
2022-07-29T01:39:50.863Z,96135.50
2022-07-29T01:42:45.942Z,96130.34
2022-07-29T01:45:29.655Z,96123.75
2022-07-29T01:48:07.914Z,96134.75
2022-07-29T01:50:37.019Z,96131.66
2022-07-29T01:53:11.640Z,96128.75
2022-07-29T01:55:43.747Z,96119.59
2022-07-29T01:58:13.214Z,96121.25
2022-07-29T02:00:43.885Z,96118.19
2022-07-29T02:03:12.824Z,96103.03
2022-07-29T02:05:43.437Z,96114.66
2022-07-29T02:08:12.885Z,96101.19
2022-07-29T02:10:41.881Z,96102.81
2022-07-29T02:13:10.713Z,96096.38
2022-07-29T02:15:38.560Z,96097.41
2022-07-29T02:18:26.292Z,96094.78
2022-07-29T02:20:56.048Z,96100.41
2022-07-29T02:23:24.999Z,96103.53
2022-07-29T02:25:57.229Z,96099.88
2022-07-29T02:28:26.675Z,96105.69
2022-07-29T02:30:56.886Z,96099.69
2022-07-29T02:33:24.779Z,96102.84
2022-07-29T02:35:53.003Z,96095.16
2022-07-29T02:38:41.960Z,96097.28
2022-07-29T02:41:14.673Z,96093.16
2022-07-29T02:43:44.659Z,96097.91
2022-07-29T02:46:29.259Z,96091.31
2022-07-29T02:49:38.383Z,96095.91
2022-07-29T02:52:13.561Z,96094.28
2022-07-29T02:55:17.130Z,96089.78
2022-07-29T02:58:27.332Z,96091.66
2022-07-29T03:00:54.701Z,96096.06
2022-07-29T03:03:22.922Z,96097.75
2022-07-29T03:05:49.651Z,96099.22
2022-07-29T03:08:17.974Z,96098.59
2022-07-29T03:10:48.218Z,96108.16
2022-07-29T03:13:15.742Z,96099.06
2022-07-29T03:15:45.232Z,96104.03
2022-07-29T03:18:12.470Z,96095.38
2022-07-29T03:20:40.309Z,96093.09
2022-07-29T03:23:07.417Z,96087.50
2022-07-29T03:25:34.236Z,96086.88
2022-07-29T03:28:01.499Z,96090.88
2022-07-29T03:30:28.243Z,96095.44
2022-07-29T03:32:55.525Z,96091.94
2022-07-29T03:35:24.819Z,96103.72
2022-07-29T03:37:51.509Z,96094.44
2022-07-29T03:40:25.141Z,96098.16
2022-07-29T03:42:54.307Z,96098.16
2022-07-29T03:45:22.903Z,96103.34
2022-07-29T03:48:03.242Z,96101.72
2022-07-29T03:50:31.736Z,96098.81
2022-07-29T03:52:59.068Z,96096.34
2022-07-29T03:55:27.913Z,96101.53
2022-07-29T03:57:56.764Z,96111.09
2022-07-29T04:00:26.450Z,96112.72
2022-07-29T04:02:53.292Z,96105.91
2022-07-29T04:05:20.402Z,96111.31
2022-07-29T04:07:49.124Z,96111.69
2022-07-29T04:10:17.959Z,96111.69
2022-07-29T04:12:57.469Z,96118.09
2022-07-29T04:15:24.140Z,96112.94
2022-07-29T04:17:50.822Z,96119.16
2022-07-29T04:20:17.504Z,96114.00
2022-07-29T04:22:44.294Z,96117.50
2022-07-29T04:25:11.032Z,96113.56
2022-07-29T04:27:57.751Z,96115.00
2022-07-29T04:30:24.504Z,96106.72
2022-07-29T04:32:51.188Z,96111.88
2022-07-29T04:35:17.947Z,96116.22
2022-07-29T04:37:44.676Z,96122.84
2022-07-29T04:40:11.811Z,96122.41
2022-07-29T04:42:43.963Z,96117.41
2022-07-29T04:45:13.653Z,96119.91
2022-07-29T04:47:41.094Z,96116.75
2022-07-29T04:50:09.279Z,96123.38
2022-07-29T04:52:36.383Z,96114.88
2022-07-29T04:55:04.567Z,96117.13
2022-07-29T04:57:31.470Z,96114.00
2022-07-29T04:59:58.185Z,96109.22
2022-07-29T05:02:25.035Z,96109.00
2022-07-29T05:04:51.759Z,96107.31
2022-07-29T05:07:18.499Z,96110.59
2022-07-29T05:09:45.212Z,96103.38
2022-07-29T05:12:12.087Z,96109.16
2022-07-29T05:14:38.829Z,96103.91
2022-07-29T05:17:05.856Z,96109.25
2022-07-29T05:19:32.949Z,96117.00
2022-07-29T05:22:01.081Z,96116.69
2022-07-29T05:24:27.912Z,96116.25
2022-07-29T05:26:54.626Z,96120.13
2022-07-29T05:29:43.376Z,96116.28
2022-07-29T05:32:08.262Z,96123.22
2022-07-29T05:34:35.074Z,96125.38
2022-07-29T05:37:01.995Z,96120.81
2022-07-29T05:39:46.587Z,96124.69
2022-07-29T05:42:15.057Z,96110.19
2022-07-29T05:44:41.867Z,96103.63
2022-07-29T05:47:08.805Z,96105.66
2022-07-29T05:49:35.582Z,96108.91
2022-07-29T05:52:02.749Z,96102.66
2022-07-29T05:54:29.515Z,96110.84
2022-07-29T05:56:56.796Z,96109.31
2022-07-29T05:59:28.292Z,96116.97
2022-07-29T06:01:58.205Z,96110.91
2022-07-29T06:04:25.454Z,96117.81
2022-07-29T06:06:52.450Z,96119.38
2022-07-29T06:09:19.395Z,96108.59
2022-07-29T06:11:46.142Z,96117.75
2022-07-29T06:14:12.917Z,96112.69
2022-07-29T06:16:39.920Z,96114.63
2022-07-29T06:19:06.828Z,96119.16
2022-07-29T06:21:34.625Z,96116.91
2022-07-29T06:24:05.833Z,96123.69
2022-07-29T06:26:35.288Z,96119.38
2022-07-29T06:29:06.889Z,96105.09
2022-07-29T06:31:33.818Z,96112.81
2022-07-29T06:34:00.559Z,96116.22
2022-07-29T06:36:27.421Z,96109.88
2022-07-29T06:38:54.685Z,96109.66
2022-07-29T06:41:24.115Z,96104.06
2022-07-29T06:43:54.521Z,96106.97
2022-07-29T06:46:23.383Z,96102.91
2022-07-29T06:48:51.378Z,96103.25
2022-07-29T06:51:23.083Z,96103.81
2022-07-29T06:53:59.447Z,96096.59
2022-07-29T06:56:31.813Z,96101.84
2022-07-29T06:58:58.872Z,96099.19
2022-07-29T07:01:25.711Z,96105.56
2022-07-29T07:03:52.452Z,96110.31
2022-07-29T07:06:19.360Z,96106.22
2022-07-29T07:08:46.060Z,96109.19
2022-07-29T07:11:12.870Z,96108.97
2022-07-29T07:13:39.509Z,96107.56
2022-07-29T07:16:06.567Z,96102.44
2022-07-29T07:18:33.343Z,96099.47
2022-07-29T07:21:00.065Z,96106.00
2022-07-29T07:23:26.920Z,96102.16
2022-07-29T07:25:53.685Z,96101.91
2022-07-29T07:28:24.773Z,96106.81
2022-07-29T07:30:52.881Z,96110.91
2022-07-29T07:33:19.924Z,96105.72
2022-07-29T07:35:46.837Z,96104.63
2022-07-29T07:38:13.717Z,96108.16
2022-07-29T07:40:40.461Z,96111.72
2022-07-29T07:43:07.217Z,96110.34
2022-07-29T07:45:34.097Z,96106.22
2022-07-29T07:48:01.108Z,96102.31
2022-07-29T07:50:27.853Z,96098.72
2022-07-29T07:52:58.929Z,96099.56
2022-07-29T07:55:26.840Z,96095.72
2022-07-29T07:57:54.881Z,96102.19
2022-07-29T08:00:23.075Z,96105.44
2022-07-29T08:02:51.337Z,96101.03
2022-07-29T08:05:19.119Z,96097.94
2022-07-29T08:07:47.499Z,96102.50
2022-07-29T08:10:16.018Z,96099.19
2022-07-29T08:12:44.507Z,96102.91
2022-07-29T08:15:11.431Z,96106.03
2022-07-29T08:17:38.128Z,96116.97
2022-07-29T08:20:05.456Z,96109.81
2022-07-29T08:22:32.249Z,96107.75
2022-07-29T08:24:59.023Z,96116.72
2022-07-29T08:27:42.838Z,96102.94
2022-07-29T08:30:11.411Z,96113.09
2022-07-29T08:32:55.182Z,96119.75
2022-07-29T08:35:23.592Z,96119.38
2022-07-29T08:37:50.643Z,96112.94
2022-07-29T08:40:17.462Z,96118.22
2022-07-29T08:42:44.501Z,96122.38
2022-07-29T08:45:11.700Z,96114.41
2022-07-29T08:47:43.224Z,96126.91
2022-07-29T08:50:11.148Z,96129.41
2022-07-29T08:52:40.614Z,96126.97
2022-07-29T08:55:08.733Z,96128.56
2022-07-29T08:57:37.208Z,96125.75
2022-07-29T09:00:11.694Z,96124.25
2022-07-29T09:02:47.482Z,96133.91
2022-07-29T09:05:15.183Z,96128.75
2022-07-29T09:07:44.339Z,96122.78
2022-07-29T09:10:11.498Z,96129.72
2022-07-29T09:12:38.988Z,96114.13
2022-07-29T09:15:06.543Z,96129.78
2022-07-29T09:17:47.945Z,96115.53
2022-07-29T09:20:20.857Z,96126.03
2022-07-29T09:22:51.947Z,96128.03
2022-07-29T09:25:38.418Z,96128.47
2022-07-29T09:28:13.442Z,96123.56
2022-07-29T09:30:59.564Z,96129.88
2022-07-29T09:33:35.519Z,96130.25
2022-07-29T09:36:10.178Z,96138.25
2022-07-29T09:38:38.380Z,96130.94
2022-07-29T09:41:06.810Z,96132.59
2022-07-29T09:43:34.701Z,96132.69
2022-07-29T09:46:38.423Z,96135.47
2022-07-29T09:49:09.035Z,96135.75
2022-07-29T09:51:38.204Z,96130.00
2022-07-29T09:54:25.506Z,96138.22
2022-07-29T09:56:53.413Z,96142.31
2022-07-29T09:59:27.504Z,96145.06
2022-07-29T10:01:55.201Z,96141.53
2022-07-29T10:04:22.394Z,96134.69
2022-07-29T10:07:04.447Z,96134.97
2022-07-29T10:09:32.569Z,96139.88
2022-07-29T10:12:10.206Z,96142.88
2022-07-29T10:14:37.073Z,96145.06
2022-07-29T10:17:05.189Z,96139.88
2022-07-29T10:19:33.552Z,96139.59
2022-07-29T10:22:02.380Z,96134.13
2022-07-29T10:24:30.742Z,96136.56
2022-07-29T10:26:59.551Z,96139.00
2022-07-29T10:29:27.310Z,96139.00
2022-07-29T10:32:31.677Z,96141.19
2022-07-29T10:35:07.138Z,96133.78
2022-07-29T10:37:56.916Z,96135.19
2022-07-29T10:40:51.378Z,96134.34
2022-07-29T10:43:23.936Z,96130.00
2022-07-29T10:45:58.229Z,96124.25
2022-07-29T10:48:25.342Z,96123.72
2022-07-29T10:51:04.670Z,96124.81
2022-07-29T10:53:51.164Z,96113.94
2022-07-29T10:56:28.664Z,96118.81
2022-07-29T10:59:32.355Z,96112.25
2022-07-29T11:02:35.363Z,96110.81
2022-07-29T11:04:50.372Z,96114.25
2022-07-29T11:07:17.618Z,96108.31
2022-07-29T11:09:46.571Z,96100.78
2022-07-29T11:12:49.069Z,96108.06
2022-07-29T11:15:21.926Z,96100.47
2022-07-29T11:17:54.757Z,96102.91
2022-07-29T11:20:38.393Z,96102.53
2022-07-29T11:23:25.370Z,96094.63
2022-07-29T11:26:12.800Z,96094.66
2022-07-29T11:28:52.449Z,96090.22
2022-07-29T11:31:35.673Z,96101.16
2022-07-29T11:34:31.953Z,96093.84
2022-07-29T11:37:12.101Z,96094.34
2022-07-29T11:39:54.242Z,96097.38
2022-07-29T11:42:32.480Z,96092.75
2022-07-29T11:45:43.764Z,96094.94
2022-07-29T11:48:29.366Z,96097.38
2022-07-29T11:50:49.770Z,96089.56
2022-07-29T11:53:17.328Z,96096.88
2022-07-29T11:55:50.887Z,96092.16
2022-07-29T11:58:25.163Z,96093.81
2022-07-29T12:03:40.124Z,96084.66
2022-07-29T12:07:02.573Z,96085.75
2022-07-29T12:07:03.352Z,96088.25
2022-07-29T12:09:14.360Z,96083.19
2022-07-29T12:11:41.657Z,96096.06
2022-07-29T12:14:33.046Z,96089.78
2022-07-29T12:17:01.560Z,96094.69
2022-07-29T12:19:28.488Z,96093.31
2022-07-29T12:21:59.762Z,96086.50
2022-07-29T12:24:27.708Z,96090.66
2022-07-29T12:26:57.301Z,96093.91
2022-07-29T12:29:34.484Z,96091.72
2022-07-29T12:32:04.796Z,96090.31
2022-07-29T12:34:32.421Z,96085.94
2022-07-29T12:36:59.568Z,96090.00
2022-07-29T12:39:29.083Z,96079.91
2022-07-29T12:42:04.881Z,96086.41
2022-07-29T12:44:51.462Z,96087.78
2022-07-29T12:47:19.403Z,96079.31
2022-07-29T12:49:46.649Z,96083.38
2022-07-29T12:52:42.593Z,96081.78
2022-07-29T12:55:09.315Z,96077.44
2022-07-29T12:57:49.834Z,96086.47
2022-07-29T13:00:16.954Z,96080.44
2022-07-29T13:02:44.712Z,96073.31
2022-07-29T13:05:13.811Z,96072.81
2022-07-29T13:07:55.416Z,96072.81
2022-07-29T13:10:25.140Z,96073.41
2022-07-29T13:13:11.865Z,96073.97
2022-07-29T13:15:40.458Z,96079.44
2022-07-29T13:18:39.837Z,96075.06
2022-07-29T13:21:18.880Z,96085.47
2022-07-29T13:23:46.001Z,96068.53
2022-07-29T13:26:13.561Z,96070.72
2022-07-29T13:28:41.044Z,96066.09
2022-07-29T13:31:11.474Z,96060.91
2022-07-29T13:33:38.280Z,96051.56
2022-07-29T13:36:05.078Z,96057.03
2022-07-29T13:38:31.828Z,96051.25
2022-07-29T13:40:59.388Z,96052.09
2022-07-29T13:43:26.203Z,96055.91
2022-07-29T13:45:53.128Z,96055.88
2022-07-29T13:48:19.858Z,96051.25
2022-07-29T13:50:47.724Z,96043.88
2022-07-29T13:53:17.537Z,96048.78
2022-07-29T13:55:46.151Z,96048.84
2022-07-29T13:58:12.967Z,96049.66
2022-07-29T14:00:39.707Z,96039.56
2022-07-29T14:03:07.530Z,96043.09
2022-07-29T14:05:34.309Z,96043.94
2022-07-29T14:08:01.056Z,96036.56
2022-07-29T14:10:28.247Z,96031.94
2022-07-29T14:12:54.959Z,96031.09
2022-07-29T14:15:21.973Z,96033.88
2022-07-29T14:17:48.677Z,96019.94
2022-07-29T14:20:17.191Z,96029.78
2022-07-29T14:22:45.292Z,96020.16
2022-07-29T14:25:15.076Z,96019.88
2022-07-29T14:27:44.200Z,96025.31
2022-07-29T14:30:11.776Z,96017.41
2022-07-29T14:32:38.510Z,96019.28
2022-07-29T14:35:06.435Z,96014.66
2022-07-29T14:37:39.729Z,96022.03
2022-07-29T14:40:08.771Z,96013.03
2022-07-29T14:42:35.574Z,96013.81
2022-07-29T14:45:02.265Z,96014.91
2022-07-29T14:47:28.970Z,96015.19
2022-07-29T14:49:55.714Z,96018.22
2022-07-29T14:52:22.462Z,96016.56
2022-07-29T14:54:49.261Z,96011.69
2022-07-29T14:57:16.074Z,96014.41
2022-07-29T14:59:42.881Z,96007.28
2022-07-29T15:02:10.675Z,96002.09
2022-07-29T15:04:37.381Z,96008.06
2022-07-29T15:07:04.443Z,96003.97
2022-07-29T15:09:31.241Z,95996.56
2022-07-29T15:11:58.236Z,95996.25
2022-07-29T15:14:25.118Z,95989.72
2022-07-29T15:16:52.875Z,95996.84
2022-07-29T15:19:20.319Z,95990.28
2022-07-29T15:21:47.991Z,95986.47
2022-07-29T15:24:15.034Z,95981.03
2022-07-29T15:26:43.456Z,95991.72
2022-07-29T15:29:10.338Z,95984.63
2022-07-29T15:31:37.054Z,95980.53
2022-07-29T15:34:06.271Z,95982.75
2022-07-29T15:36:51.510Z,95977.88
2022-07-29T15:39:19.929Z,95973.00
2022-07-29T15:41:47.063Z,95965.66
2022-07-29T15:44:13.954Z,95970.28
2022-07-29T15:47:00.117Z,95967.56
2022-07-29T15:49:47.860Z,95965.38
2022-07-29T15:52:19.151Z,95957.50
2022-07-29T15:54:52.285Z,95952.81
2022-07-29T15:57:19.063Z,95955.56
2022-07-29T15:59:45.819Z,95956.09
2022-07-29T16:02:12.608Z,95952.28
2022-07-29T16:04:39.416Z,95951.47
2022-07-29T16:07:06.384Z,95947.88
2022-07-29T16:09:33.161Z,95950.06
2022-07-29T16:11:59.913Z,95950.63
2022-07-29T16:14:28.153Z,95951.16
2022-07-29T16:16:55.761Z,95951.97
2022-07-29T16:19:22.925Z,95952.25
2022-07-29T16:21:49.666Z,95941.06
2022-07-29T16:24:16.348Z,95938.03
2022-07-29T16:26:43.339Z,95941.31
2022-07-29T16:29:10.111Z,95928.75
2022-07-29T16:31:36.969Z,95935.53
2022-07-29T16:34:03.795Z,95925.44
2022-07-29T16:36:30.537Z,95919.69
2022-07-29T16:38:57.294Z,95922.97
2022-07-29T16:41:23.995Z,95933.56
2022-07-29T16:43:50.696Z,95934.38
2022-07-29T16:46:18.952Z,95937.06
2022-07-29T16:48:46.458Z,95934.31
2022-07-29T16:51:14.371Z,95931.31
2022-07-29T16:53:41.564Z,95936.19
2022-07-29T16:56:10.108Z,95937.78
2022-07-29T16:58:43.590Z,95944.00
2022-07-29T17:01:11.202Z,95937.16
2022-07-29T17:04:00.163Z,95939.59
2022-07-29T17:06:27.726Z,95926.19
2022-07-29T17:08:54.454Z,95924.50
2022-07-29T17:11:21.226Z,95928.47
2022-07-29T17:14:11.175Z,95919.44
2022-07-29T17:16:37.980Z,95916.09
2022-07-29T17:19:04.779Z,95917.91
2022-07-29T17:21:31.522Z,95921.16
2022-07-29T17:23:59.456Z,95927.94
2022-07-29T17:26:28.335Z,95929.50
2022-07-29T17:28:55.604Z,95918.25
2022-07-29T17:31:23.535Z,95924.22
2022-07-29T17:33:50.549Z,95927.41
2022-07-29T17:36:29.806Z,95936.88
2022-07-29T17:39:03.320Z,95934.41
2022-07-29T17:41:30.645Z,95932.75
2022-07-29T17:43:57.747Z,95938.78
2022-07-29T17:46:27.434Z,95934.94
2022-07-29T17:48:55.859Z,95938.13
2022-07-29T17:51:24.723Z,95942.97
2022-07-29T17:53:51.572Z,95945.94
2022-07-29T17:56:18.353Z,95951.06
2022-07-29T17:58:47.425Z,95943.13
2022-07-29T18:01:15.107Z,95949.31
2022-07-29T18:03:42.892Z,95944.63
2022-07-29T18:06:10.660Z,95946.22
2022-07-29T18:08:37.891Z,95951.09
2022-07-29T18:11:05.239Z,95943.22
2022-07-29T18:13:32.112Z,95943.47
2022-07-29T18:16:00.704Z,95938.53
2022-07-29T18:18:28.313Z,95933.06
2022-07-29T18:20:55.484Z,95933.56
2022-07-29T18:23:22.324Z,95931.34
2022-07-29T18:25:49.125Z,95930.22
2022-07-29T18:28:15.812Z,95925.31
2022-07-29T18:30:42.602Z,95926.91
2022-07-29T18:33:21.822Z,95924.72
2022-07-29T18:35:50.160Z,95940.94
2022-07-29T18:38:17.359Z,95931.91
2022-07-29T18:40:45.815Z,95931.56
2022-07-29T18:43:13.036Z,95940.72
2022-07-29T18:45:39.982Z,95936.63
2022-07-29T18:48:12.856Z,95936.28
2022-07-29T18:50:40.562Z,95943.28
2022-07-29T18:53:07.967Z,95951.63
2022-07-29T18:55:34.958Z,95951.78
2022-07-29T18:58:01.843Z,95953.13
2022-07-29T19:00:28.645Z,95956.84
2022-07-29T19:02:56.828Z,95961.38
2022-07-29T19:05:23.910Z,95960.78
2022-07-29T19:07:50.732Z,95975.41
2022-07-29T19:10:17.726Z,95979.69
2022-07-29T19:12:44.669Z,95985.63
2022-07-29T19:15:11.593Z,95980.44
2022-07-29T19:17:39.218Z,95988.84
2022-07-29T19:20:07.885Z,95989.66
2022-07-29T19:22:34.973Z,96005.66
2022-07-29T19:25:01.758Z,95996.97
2022-07-29T19:27:28.663Z,96007.22
2022-07-29T19:29:59.063Z,96008.78
2022-07-29T19:32:26.521Z,96013.41
2022-07-29T19:35:11.823Z,96004.94
2022-07-29T19:37:38.571Z,96010.34
2022-07-29T19:40:06.523Z,96021.44
2022-07-29T19:42:33.546Z,96008.94
2022-07-29T19:45:00.255Z,96020.38
2022-07-29T19:47:26.963Z,96020.38
2022-07-29T19:49:53.706Z,96025.56
2022-07-29T19:52:20.526Z,96019.31
2022-07-29T19:54:47.228Z,96028.38
2022-07-29T19:57:14.143Z,96027.47
2022-07-29T19:59:41.214Z,96024.75
2022-07-29T20:02:10.844Z,96028.19
2022-07-29T20:04:38.705Z,96039.53
2022-07-29T20:07:06.629Z,96042.81
2022-07-29T20:09:33.636Z,96038.47
2022-07-29T20:12:00.721Z,96044.94
2022-07-29T20:14:27.649Z,96053.78
2022-07-29T20:16:54.568Z,96059.56
2022-07-29T20:19:21.406Z,96070.91
2022-07-29T20:21:48.105Z,96073.13
2022-07-29T20:24:14.870Z,96078.16
2022-07-29T20:26:41.637Z,96088.88
2022-07-29T20:29:08.458Z,96094.78
2022-07-29T20:31:35.555Z,96096.47
2022-07-29T20:34:02.338Z,96098.63
2022-07-29T20:36:29.033Z,96104.03
2022-07-29T20:38:56.587Z,96103.72
2022-07-29T20:41:23.508Z,96107.25
2022-07-29T20:43:50.421Z,96104.28
2022-07-29T20:46:18.254Z,96107.47
2022-07-29T20:48:47.166Z,96108.78
2022-07-29T20:51:14.631Z,96111.13
2022-07-29T20:53:41.801Z,96098.19
2022-07-29T20:56:08.699Z,96106.69
2022-07-29T20:58:36.577Z,96115.19
2022-07-29T21:01:05.091Z,96104.81
2022-07-29T21:03:32.656Z,96106.50
2022-07-29T21:06:00.601Z,96093.38
2022-07-29T21:08:27.751Z,96106.91
2022-07-29T21:10:54.625Z,96103.97
2022-07-29T21:13:23.114Z,96091.16
2022-07-29T21:15:51.753Z,96083.75
2022-07-29T21:18:32.602Z,96074.22
2022-07-29T21:21:04.460Z,96068.09
2022-07-29T21:23:31.387Z,96058.47
2022-07-29T21:25:58.595Z,96052.69
2022-07-29T21:28:30.621Z,96046.22
2022-07-29T21:31:00.086Z,96046.34
2022-07-29T21:33:29.653Z,96048.94
2022-07-29T21:36:15.996Z,96052.22
2022-07-29T21:38:43.260Z,96043.38
2022-07-29T21:41:12.571Z,96052.31
2022-07-29T21:43:41.980Z,96050.53
2022-07-29T21:46:09.454Z,96052.69
2022-07-29T21:48:36.235Z,96051.84
2022-07-29T21:51:03.098Z,96062.59
2022-07-29T21:53:30.673Z,96053.53
2022-07-29T21:55:57.744Z,96058.56
2022-07-29T21:58:25.295Z,96056.81
2022-07-29T22:00:52.294Z,96049.38
2022-07-29T22:03:18.979Z,96048.56
2022-07-29T22:05:46.018Z,96049.22
2022-07-29T22:08:13.612Z,96051.94
2022-07-29T22:10:40.353Z,96053.44
2022-07-29T22:13:07.468Z,96053.88
2022-07-29T22:15:34.390Z,96048.53
2022-07-29T22:18:01.421Z,96042.56
2022-07-29T22:20:28.210Z,96040.69
2022-07-29T22:22:55.101Z,96047.13
2022-07-29T22:25:22.484Z,96041.22
2022-07-29T22:27:49.304Z,96037.66
2022-07-29T22:30:17.092Z,96028.94
2022-07-29T22:32:43.945Z,96024.97
2022-07-29T22:35:10.755Z,96025.44
2022-07-29T22:37:37.611Z,96022.50
2022-07-29T22:40:05.342Z,96025.66
2022-07-29T22:42:32.463Z,96015.91
2022-07-29T22:44:59.161Z,96016.72
2022-07-29T22:47:46.062Z,96011.78
2022-07-29T22:50:12.821Z,96005.56
2022-07-29T22:52:39.553Z,96005.81
2022-07-29T22:55:06.655Z,96001.66
2022-07-29T22:57:33.368Z,95996.25
2022-07-29T23:00:02.369Z,95987.31
2022-07-29T23:02:29.254Z,95982.56
2022-07-29T23:04:56.072Z,95982.75
2022-07-29T23:07:23.600Z,95986.50
2022-07-29T23:09:50.537Z,95979.91
2022-07-29T23:12:17.628Z,95974.13
2022-07-29T23:14:44.319Z,95974.38
2022-07-29T23:17:11.033Z,95975.72
2022-07-29T23:19:37.831Z,95965.38
2022-07-29T23:22:05.907Z,95961.66
2022-07-29T23:24:32.593Z,95958.25
2022-07-29T23:26:59.603Z,95958.25
2022-07-29T23:29:26.569Z,95955.19
2022-07-29T23:31:53.275Z,95955.19
2022-07-29T23:34:20.089Z,95964.94
2022-07-29T23:36:46.874Z,95961.66
2022-07-29T23:39:14.100Z,95962.22
2022-07-29T23:41:41.425Z,95956.59
2022-07-29T23:44:08.233Z,95957.44
2022-07-29T23:46:35.044Z,95954.97
2022-07-29T23:49:01.889Z,95958.94
2022-07-29T23:51:29.356Z,95950.41
2022-07-29T23:53:56.503Z,95949.78
2022-07-29T23:56:23.562Z,95950.25
2022-07-29T23:58:50.281Z,95951.66
